Terminal Aerodrome Forecast
Issued by NWS Wichita, KS

Home | Current Version | Previous Version | Graphics & Text | Print | Product List | Glossary On
Versions: 1 2 3 4 5 6 7 8 9 10 11 12 13 14 15 16 17 18 19
000
FTUS43 KICT 241139
TAFICT
TAF
KICT 241139Z 2412/2512 35007KT P6SM SCT100
     FM242100 35012KT P6SM OVC080
     FM250300 35014G20KT P6SM VCSH OVC050
     FM250900 35012KT 6SM -RA OVC025
      TEMPO 2509/2512 4SM SHRA BR OVC015=

USA.gov is the U.S. government's official web portal to all federal, state and local government web resources and services.